createdAt,value
2022-08-12T00:02:43.657Z,15.64
2022-08-12T00:05:30.206Z,15.56
2022-08-12T00:08:16.970Z,15.51
2022-08-12T00:11:14.287Z,15.41
2022-08-12T00:13:59.602Z,15.37
2022-08-12T00:16:48.513Z,15.28
2022-08-12T00:19:34.054Z,15.23
2022-08-12T00:22:19.724Z,15.17
2022-08-12T00:25:05.791Z,15.09
2022-08-12T00:27:51.432Z,15.05
2022-08-12T00:30:36.571Z,14.98
2022-08-12T00:33:22.224Z,14.95
2022-08-12T00:36:14.894Z,14.93
2022-08-12T00:39:17.242Z,14.84
2022-08-12T00:42:03.109Z,14.77
2022-08-12T00:44:30.081Z,14.82
2022-08-12T00:47:01.863Z,14.82
2022-08-12T00:49:29.671Z,14.82
2022-08-12T00:52:07.684Z,14.89
2022-08-12T00:54:39.731Z,14.85
2022-08-12T00:57:17.612Z,14.75
2022-08-12T00:59:51.287Z,14.67
2022-08-12T01:02:32.503Z,14.60
2022-08-12T01:05:18.663Z,14.59
2022-08-12T01:08:04.794Z,14.59
2022-08-12T01:10:51.152Z,14.57
2022-08-12T01:13:19.766Z,14.54
2022-08-12T01:15:51.424Z,14.55
2022-08-12T01:18:27.301Z,14.57
2022-08-12T01:21:20.017Z,14.63
2022-08-12T01:24:29.671Z,14.66
2022-08-12T01:26:59.853Z,14.62
2022-08-12T01:29:32.962Z,14.56
2022-08-12T01:32:05.156Z,14.49
2022-08-12T01:34:37.443Z,14.45
2022-08-12T01:37:07.587Z,14.46
2022-08-12T01:40:36.919Z,14.45
2022-08-12T01:42:39.939Z,14.43
2022-08-12T01:45:07.163Z,14.40
2022-08-12T01:47:54.581Z,14.47
2022-08-12T01:50:47.557Z,14.61
2022-08-12T01:53:16.018Z,14.52
2022-08-12T01:55:46.341Z,14.44
2022-08-12T01:58:51.374Z,14.30
2022-08-12T02:01:19.554Z,14.18
2022-08-12T02:04:22.541Z,14.03
2022-08-12T02:07:16.404Z,13.95
2022-08-12T02:10:10.639Z,13.86
2022-08-12T02:13:06.091Z,13.71
2022-08-12T02:15:48.096Z,13.79
2022-08-12T02:18:42.013Z,13.83
2022-08-12T02:21:20.692Z,13.89
2022-08-12T02:23:48.057Z,13.92
2022-08-12T02:26:15.970Z,13.97
2022-08-12T02:28:42.636Z,13.99
2022-08-12T02:31:09.648Z,13.98
2022-08-12T02:33:37.777Z,13.92
2022-08-12T02:36:05.200Z,13.98
2022-08-12T02:38:31.866Z,14.00
2022-08-12T02:41:02.091Z,13.96
2022-08-12T02:43:44.714Z,13.77
2022-08-12T02:46:14.808Z,13.70
2022-08-12T02:48:41.631Z,13.74
2022-08-12T02:51:10.938Z,13.75
2022-08-12T02:53:38.142Z,13.80
2022-08-12T02:56:05.661Z,13.77
2022-08-12T02:58:33.698Z,13.75
2022-08-12T03:01:04.451Z,13.64
2022-08-12T03:03:32.910Z,13.58
2022-08-12T03:06:04.557Z,13.58
2022-08-12T03:08:36.268Z,13.58
2022-08-12T03:11:27.614Z,13.57
2022-08-12T03:13:58.015Z,13.67
2022-08-12T03:16:26.847Z,13.66
2022-08-12T03:18:54.549Z,13.62
2022-08-12T03:22:03.841Z,13.48
2022-08-12T03:24:09.525Z,13.45
2022-08-12T03:26:37.031Z,13.43
2022-08-12T03:29:06.598Z,13.39
2022-08-12T03:31:33.805Z,13.29
2022-08-12T03:34:08.279Z,13.28
2022-08-12T03:36:36.667Z,13.22
2022-08-12T03:39:16.226Z,13.21
2022-08-12T03:41:55.194Z,13.17
2022-08-12T03:45:08.442Z,13.23
2022-08-12T03:48:04.420Z,13.19
2022-08-12T03:50:49.806Z,13.13
2022-08-12T03:53:43.503Z,13.12
2022-08-12T03:56:28.635Z,12.94
2022-08-12T03:59:14.327Z,12.89
2022-08-12T04:01:41.367Z,12.92
2022-08-12T04:04:11.009Z,12.94
2022-08-12T04:06:42.251Z,12.91
2022-08-12T04:09:15.545Z,12.92
2022-08-12T04:12:02.424Z,12.90
2022-08-12T04:14:28.955Z,12.84
2022-08-12T04:16:57.099Z,12.86
2022-08-12T04:19:25.093Z,12.80
2022-08-12T04:22:02.457Z,12.80
2022-08-12T04:24:31.597Z,12.81
2022-08-12T04:26:58.155Z,12.86
2022-08-12T04:30:21.253Z,12.90
2022-08-12T04:32:13.884Z,12.85
2022-08-12T04:34:42.241Z,12.90
2022-08-12T04:37:08.856Z,12.91
2022-08-12T04:39:35.731Z,12.91
2022-08-12T04:42:02.315Z,12.83
2022-08-12T04:44:28.828Z,12.89
2022-08-12T04:46:55.981Z,12.99
2022-08-12T04:49:24.168Z,13.03
2022-08-12T04:51:55.214Z,13.07
2022-08-12T04:54:26.608Z,13.09
2022-08-12T04:57:04.165Z,13.13
2022-08-12T04:59:47.864Z,13.14
2022-08-12T05:02:22.802Z,13.15
2022-08-12T05:04:51.718Z,13.20
2022-08-12T05:07:19.377Z,13.20
2022-08-12T05:09:59.058Z,13.27
2022-08-12T05:12:34.607Z,13.28
2022-08-12T05:15:01.723Z,13.30
2022-08-12T05:17:28.570Z,13.34
2022-08-12T05:19:57.166Z,13.38
2022-08-12T05:22:27.594Z,13.49
2022-08-12T05:24:54.436Z,13.61
2022-08-12T05:27:22.925Z,13.71
2022-08-12T05:30:07.638Z,13.75
2022-08-12T05:32:36.604Z,13.84
2022-08-12T05:35:06.635Z,13.97
2022-08-12T05:37:34.868Z,14.06
2022-08-12T05:40:06.881Z,14.19
2022-08-12T05:42:36.824Z,14.30
2022-08-12T05:45:03.768Z,14.43
2022-08-12T05:47:40.698Z,14.60
2022-08-12T05:50:16.942Z,14.80
2022-08-12T05:52:44.021Z,15.02
2022-08-12T05:55:11.711Z,15.28
2022-08-12T05:57:39.047Z,15.52
2022-08-12T06:00:06.708Z,15.84
2022-08-12T06:02:35.049Z,16.12
2022-08-12T06:05:02.579Z,16.42
2022-08-12T06:07:59.255Z,16.76
2022-08-12T06:10:17.711Z,17.14
2022-08-12T06:13:00.518Z,17.45
2022-08-12T06:15:27.161Z,17.59
2022-08-12T06:17:53.824Z,17.73
2022-08-12T06:20:25.728Z,17.83
2022-08-12T06:22:56.904Z,18.01
2022-08-12T06:25:26.924Z,18.26
2022-08-12T06:28:07.367Z,18.61
2022-08-12T06:30:38.982Z,19.05
2022-08-12T06:33:24.917Z,19.38
2022-08-12T06:35:57.765Z,19.64
2022-08-12T06:38:27.244Z,19.77
2022-08-12T06:41:14.328Z,19.93
2022-08-12T06:44:07.015Z,20.15
2022-08-12T06:46:29.797Z,20.30
2022-08-12T06:48:59.219Z,20.46
2022-08-12T06:51:28.605Z,20.54
2022-08-12T06:53:55.963Z,20.71
2022-08-12T06:56:39.896Z,20.92
2022-08-12T06:59:11.638Z,21.24
2022-08-12T07:01:38.746Z,21.57
2022-08-12T07:04:26.496Z,21.77
2022-08-12T07:06:51.844Z,21.95
2022-08-12T07:10:04.804Z,22.11
2022-08-12T07:12:04.981Z,22.25
2022-08-12T07:14:31.678Z,22.45
2022-08-12T07:17:02.227Z,22.62
2022-08-12T07:19:40.448Z,22.98
2022-08-12T07:22:13.426Z,22.88
2022-08-12T07:24:39.979Z,23.14
2022-08-12T07:27:06.525Z,23.30
2022-08-12T07:30:03.405Z,23.46
2022-08-12T07:32:24.425Z,23.48
2022-08-12T07:34:52.399Z,23.72
2022-08-12T07:37:18.909Z,24.01
2022-08-12T07:39:50.866Z,24.27
2022-08-12T07:42:26.647Z,24.36
2022-08-12T07:44:53.418Z,24.31
2022-08-12T07:47:20.015Z,23.98
2022-08-12T07:50:05.327Z,24.13
2022-08-12T07:52:44.019Z,24.01
2022-08-12T07:55:11.752Z,24.06
2022-08-12T07:57:55.936Z,24.05
2022-08-12T08:00:22.742Z,24.32
2022-08-12T08:02:49.369Z,24.47
2022-08-12T08:05:16.243Z,24.11
2022-08-12T08:07:42.790Z,24.47
2022-08-12T08:10:11.557Z,24.73
2022-08-12T08:12:58.727Z,24.62
2022-08-12T08:15:51.284Z,24.85
2022-08-12T08:18:26.776Z,24.71
2022-08-12T08:20:54.899Z,24.74
2022-08-12T08:23:21.405Z,24.80
2022-08-12T08:25:48.336Z,25.08
2022-08-12T08:28:18.797Z,25.43
2022-08-12T08:30:47.836Z,25.76
2022-08-12T08:33:22.835Z,25.67
2022-08-12T08:35:54.616Z,25.66
2022-08-12T08:38:32.839Z,25.70
2022-08-12T08:42:15.456Z,26.00
2022-08-12T08:44:11.372Z,25.94
2022-08-12T08:46:41.172Z,25.89
2022-08-12T08:49:08.489Z,25.40
2022-08-12T08:51:35.361Z,25.35
2022-08-12T08:54:01.933Z,25.47
2022-08-12T08:56:31.388Z,25.39
2022-08-12T08:58:58.024Z,25.37
2022-08-12T09:01:25.277Z,25.47
2022-08-12T09:05:09.771Z,25.76
2022-08-12T09:06:53.673Z,25.72
2022-08-12T09:09:23.889Z,26.22
2022-08-12T09:12:11.672Z,26.58
2022-08-12T09:14:46.952Z,26.74
2022-08-12T09:17:21.020Z,26.72
2022-08-12T09:19:57.295Z,26.88
2022-08-12T09:22:28.427Z,26.64
2022-08-12T09:24:55.165Z,26.64
2022-08-12T09:27:25.771Z,26.71
2022-08-12T09:30:16.086Z,26.39
2022-08-12T09:33:04.881Z,26.44
2022-08-12T09:35:42.876Z,27.06
2022-08-12T09:38:28.522Z,27.30
2022-08-12T09:42:07.252Z,27.28
2022-08-12T09:44:05.995Z,27.43
2022-08-12T09:46:34.686Z,27.62
2022-08-12T09:49:04.219Z,27.89
2022-08-12T09:51:43.907Z,28.33
2022-08-12T09:54:32.826Z,28.69
2022-08-12T09:58:46.213Z,29.55
2022-08-12T10:00:14.575Z,30.98
2022-08-12T10:02:59.114Z,31.56
2022-08-12T10:06:26.238Z,32.56
2022-08-12T10:08:15.532Z,31.42
2022-08-12T10:11:06.816Z,32.11
2022-08-12T10:13:42.454Z,33.08
2022-08-12T10:16:18.610Z,32.99
2022-08-12T10:18:58.048Z,34.45
2022-08-12T10:21:36.016Z,34.82
2022-08-12T10:24:11.738Z,35.10
2022-08-12T10:26:58.947Z,35.18
2022-08-12T10:30:03.876Z,34.87
2022-08-12T10:32:45.464Z,35.64
2022-08-12T10:35:15.825Z,36.06
2022-08-12T10:38:39.021Z,34.66
2022-08-12T10:40:33.405Z,35.89
2022-08-12T10:43:19.970Z,37.17
2022-08-12T10:45:49.514Z,36.54
2022-08-12T10:48:23.092Z,37.16
2022-08-12T10:51:51.543Z,37.36
2022-08-12T10:54:00.902Z,36.38
2022-08-12T10:56:34.850Z,36.46
2022-08-12T10:59:10.487Z,37.49
2022-08-12T11:04:31.665Z,37.21
2022-08-12T11:04:41.405Z,38.02
2022-08-12T11:08:34.233Z,35.92
2022-08-12T11:10:02.574Z,37.11
2022-08-12T11:12:55.549Z,37.84
2022-08-12T11:15:24.175Z,37.96
2022-08-12T11:18:03.059Z,39.53
2022-08-12T11:20:31.142Z,40.06
2022-08-12T11:22:59.722Z,40.04
2022-08-12T11:25:55.662Z,40.20
2022-08-12T11:28:14.923Z,40.88
2022-08-12T11:30:43.196Z,40.68
2022-08-12T11:33:12.106Z,40.46
2022-08-12T11:35:53.117Z,41.37
2022-08-12T11:38:22.877Z,42.71
2022-08-12T11:40:50.161Z,42.33
2022-08-12T11:43:19.720Z,42.48
2022-08-12T11:45:47.034Z,43.91
2022-08-12T11:48:15.352Z,44.24
2022-08-12T11:50:44.868Z,45.29
2022-08-12T11:53:58.104Z,42.56
2022-08-12T11:55:57.906Z,41.43
2022-08-12T11:59:28.586Z,39.60
2022-08-12T12:03:57.547Z,40.71
2022-08-12T12:06:24.979Z,38.44
2022-08-12T12:08:53.799Z,38.08
2022-08-12T12:11:21.824Z,39.75
2022-08-12T12:14:08.743Z,41.23
2022-08-12T12:16:39.740Z,42.27
2022-08-12T12:19:10.244Z,38.26
2022-08-12T12:21:46.913Z,39.10
2022-08-12T12:24:21.108Z,39.93
2022-08-12T12:27:00.160Z,40.56
2022-08-12T12:30:19.682Z,41.97
2022-08-12T12:32:15.112Z,43.89
2022-08-12T12:35:14.312Z,43.41
2022-08-12T12:38:03.425Z,43.91
2022-08-12T12:40:15.348Z,44.97
2022-08-12T12:42:55.282Z,44.66
2022-08-12T12:45:26.049Z,43.17
2022-08-12T12:47:56.903Z,40.47
2022-08-12T12:50:35.107Z,42.49
2022-08-12T12:53:03.617Z,41.71
2022-08-12T12:55:35.578Z,44.28
2022-08-12T12:58:04.758Z,46.44
2022-08-12T13:00:32.804Z,46.64
2022-08-12T13:03:00.100Z,47.96
2022-08-12T13:05:42.656Z,48.16
2022-08-12T13:08:28.485Z,49.11
2022-08-12T13:11:04.268Z,50.93
2022-08-12T13:14:09.922Z,46.03
2022-08-12T13:16:22.954Z,42.31
2022-08-12T13:18:51.171Z,39.94
2022-08-12T13:21:33.378Z,40.38
2022-08-12T13:24:10.124Z,42.98
2022-08-12T13:26:40.228Z,43.03
2022-08-12T13:29:11.191Z,39.94
2022-08-12T13:32:17.280Z,41.43
2022-08-12T13:34:28.568Z,39.64
2022-08-12T13:37:04.406Z,36.83
2022-08-12T13:39:35.826Z,34.67
2022-08-12T13:42:02.407Z,33.27
2022-08-12T13:44:28.936Z,32.04
2022-08-12T13:46:58.475Z,32.09
2022-08-12T13:49:54.486Z,31.72
2022-08-12T13:52:15.352Z,31.31
2022-08-12T13:54:41.899Z,30.30
2022-08-12T13:57:11.053Z,30.27
2022-08-12T13:59:48.228Z,30.17
2022-08-12T14:02:15.897Z,30.09
2022-08-12T14:04:45.485Z,29.50
2022-08-12T14:07:23.253Z,29.38
2022-08-12T14:10:11.356Z,29.37
2022-08-12T14:12:40.163Z,29.49
2022-08-12T14:15:21.522Z,29.21
2022-08-12T14:18:14.925Z,28.89
2022-08-12T14:20:43.778Z,29.12
2022-08-12T14:24:05.659Z,28.72
2022-08-12T14:26:05.250Z,28.55
2022-08-12T14:28:34.841Z,28.54
2022-08-12T14:31:18.231Z,28.51
2022-08-12T14:33:50.140Z,28.48
2022-08-12T14:36:25.403Z,28.41
2022-08-12T14:38:54.271Z,28.39
2022-08-12T14:41:36.610Z,28.46
2022-08-12T14:44:06.336Z,28.46
2022-08-12T14:46:55.751Z,28.36
2022-08-12T14:50:34.391Z,28.48
2022-08-12T14:53:42.387Z,28.26
2022-08-12T14:57:56.650Z,27.94
2022-08-12T15:00:50.738Z,28.16
2022-08-12T15:03:20.513Z,28.32
2022-08-12T15:06:05.380Z,28.20
2022-08-12T15:08:38.905Z,28.43
2022-08-12T15:11:14.291Z,28.65
2022-08-12T15:13:45.994Z,28.74
2022-08-12T15:16:13.536Z,28.75
2022-08-12T15:18:55.264Z,28.33
2022-08-12T15:21:26.114Z,28.38
2022-08-12T15:24:12.666Z,28.49
2022-08-12T15:26:40.955Z,28.52
2022-08-12T15:29:07.671Z,28.41
2022-08-12T15:32:02.022Z,28.39
2022-08-12T15:34:23.915Z,28.13
2022-08-12T15:36:55.083Z,27.72
2022-08-12T15:39:22.228Z,27.81
2022-08-12T15:41:50.537Z,27.93
2022-08-12T15:44:38.535Z,28.00
2022-08-12T15:47:04.592Z,27.77
2022-08-12T15:49:54.199Z,27.88
2022-08-12T15:52:27.378Z,27.89
2022-08-12T15:54:54.623Z,27.74
2022-08-12T15:57:26.406Z,27.63
2022-08-12T16:00:07.020Z,27.67
2022-08-12T16:02:47.409Z,27.74
2022-08-12T16:06:11.458Z,27.63
2022-08-12T16:08:17.107Z,27.62
2022-08-12T16:10:45.315Z,27.62
2022-08-12T16:13:14.037Z,27.61
2022-08-12T16:15:51.093Z,27.60
2022-08-12T16:18:31.294Z,27.58
2022-08-12T16:20:58.160Z,27.48
2022-08-12T16:23:36.514Z,27.47
2022-08-12T16:26:14.426Z,27.49
2022-08-12T16:28:41.923Z,27.46
2022-08-12T16:31:14.468Z,27.38
2022-08-12T16:34:00.672Z,27.26
2022-08-12T16:36:30.128Z,27.24
2022-08-12T16:38:57.172Z,27.20
2022-08-12T16:41:24.069Z,27.16
2022-08-12T16:43:52.983Z,27.10
2022-08-12T16:46:31.997Z,27.05
2022-08-12T16:48:59.741Z,27.01
2022-08-12T16:51:40.433Z,26.97
2022-08-12T16:54:14.295Z,26.88
2022-08-12T16:56:55.191Z,26.75
2022-08-12T16:59:31.048Z,26.74
2022-08-12T17:02:33.937Z,26.65
2022-08-12T17:05:03.022Z,26.58
2022-08-12T17:07:37.143Z,26.52
2022-08-12T17:10:12.049Z,26.44
2022-08-12T17:12:38.839Z,26.37
2022-08-12T17:15:50.346Z,26.34
2022-08-12T17:18:38.768Z,26.25
2022-08-12T17:20:46.592Z,26.30
2022-08-12T17:23:19.351Z,26.26
2022-08-12T17:25:52.139Z,26.16
2022-08-12T17:28:21.278Z,26.05
2022-08-12T17:30:59.465Z,26.02
2022-08-12T17:33:27.275Z,25.92
2022-08-12T17:35:58.500Z,25.84
2022-08-12T17:38:25.166Z,25.73
2022-08-12T17:40:51.871Z,25.66
2022-08-12T17:43:56.566Z,25.65
2022-08-12T17:46:12.582Z,25.64
2022-08-12T17:48:55.401Z,25.61
2022-08-12T17:51:24.528Z,25.59
2022-08-12T17:54:10.386Z,25.47
2022-08-12T17:56:39.220Z,25.43
2022-08-12T17:59:09.727Z,25.41
2022-08-12T18:01:43.335Z,25.35
2022-08-12T18:04:23.421Z,25.21
2022-08-12T18:06:56.992Z,25.08
2022-08-12T18:09:31.821Z,25.03
2022-08-12T18:12:24.659Z,24.94
2022-08-12T18:15:00.759Z,24.79
2022-08-12T18:17:28.782Z,24.70
2022-08-12T18:20:04.952Z,24.62
2022-08-12T18:22:35.637Z,24.52
2022-08-12T18:25:06.315Z,24.36
2022-08-12T18:27:44.284Z,24.23
2022-08-12T18:30:20.932Z,24.09
2022-08-12T18:33:03.808Z,24.02
2022-08-12T18:35:47.586Z,23.94
2022-08-12T18:38:21.123Z,23.90
2022-08-12T18:41:10.126Z,23.83
2022-08-12T18:43:59.488Z,23.70
2022-08-12T18:46:35.881Z,23.49
2022-08-12T18:49:17.784Z,23.41
2022-08-12T18:51:55.514Z,23.21
2022-08-12T18:54:35.301Z,23.06
2022-08-12T18:57:04.980Z,22.95
2022-08-12T19:00:01.334Z,22.82
2022-08-12T19:02:23.251Z,22.65
2022-08-12T19:04:52.862Z,22.49
2022-08-12T19:07:22.198Z,22.27
2022-08-12T19:09:57.950Z,22.09
2022-08-12T19:12:57.264Z,21.85
2022-08-12T19:15:26.228Z,21.61
2022-08-12T19:18:00.760Z,21.43
2022-08-12T19:20:30.657Z,21.29
2022-08-12T19:22:59.883Z,21.20
2022-08-12T19:26:01.207Z,21.08
2022-08-12T19:28:29.519Z,20.92
2022-08-12T19:31:15.567Z,20.76
2022-08-12T19:34:00.924Z,20.66
2022-08-12T19:36:31.739Z,20.50
2022-08-12T19:38:59.756Z,20.39
2022-08-12T19:41:34.436Z,20.30
2022-08-12T19:44:16.719Z,20.24
2022-08-12T19:46:51.952Z,20.18
2022-08-12T19:49:20.426Z,20.12
2022-08-12T19:51:51.829Z,19.95
2022-08-12T19:54:22.725Z,19.90
2022-08-12T19:56:51.572Z,19.79
2022-08-12T19:59:43.551Z,19.73
2022-08-12T20:02:41.421Z,19.65
2022-08-12T20:06:05.802Z,19.48
2022-08-12T20:07:59.406Z,19.38
2022-08-12T20:10:35.123Z,19.31
2022-08-12T20:13:18.556Z,19.22
2022-08-12T20:15:51.126Z,19.12
2022-08-12T20:18:44.304Z,19.12
2022-08-12T20:21:16.156Z,19.08
2022-08-12T20:23:59.611Z,18.96
2022-08-12T20:26:27.872Z,18.94
2022-08-12T20:28:55.452Z,18.88
2022-08-12T20:31:22.008Z,18.80
2022-08-12T20:33:56.386Z,18.74
2022-08-12T20:36:40.843Z,18.64
2022-08-12T20:39:35.832Z,18.49
2022-08-12T20:41:58.786Z,18.48
2022-08-12T20:44:28.710Z,18.45
2022-08-12T20:46:56.046Z,18.35
2022-08-12T20:49:25.129Z,18.27
2022-08-12T20:51:56.119Z,18.18
2022-08-12T20:54:22.879Z,18.12
2022-08-12T20:57:01.974Z,18.07
2022-08-12T20:59:48.236Z,18.00
2022-08-12T21:02:18.786Z,18.05
2022-08-12T21:05:10.708Z,17.96
2022-08-12T21:07:51.539Z,17.87
2022-08-12T21:10:20.855Z,17.78
2022-08-12T21:12:48.053Z,17.73
2022-08-12T21:15:24.308Z,17.68
2022-08-12T21:18:11.221Z,17.62
2022-08-12T21:20:50.607Z,17.54
2022-08-12T21:23:18.871Z,17.48
2022-08-12T21:25:46.079Z,17.46
2022-08-12T21:28:18.934Z,17.46
2022-08-12T21:31:11.137Z,17.46
2022-08-12T21:33:58.706Z,17.43
2022-08-12T21:36:22.525Z,17.34
2022-08-12T21:39:17.641Z,17.31
2022-08-12T21:41:52.306Z,17.24
2022-08-12T21:44:24.749Z,17.12
2022-08-12T21:47:21.500Z,17.12
2022-08-12T21:49:53.836Z,17.13
2022-08-12T21:52:28.318Z,17.08
2022-08-12T21:55:02.149Z,16.99
2022-08-12T21:57:36.447Z,17.04
2022-08-12T22:00:19.017Z,17.02
2022-08-12T22:03:04.195Z,17.06
2022-08-12T22:05:49.368Z,17.09
2022-08-12T22:08:17.058Z,17.02
2022-08-12T22:10:52.384Z,16.95
2022-08-12T22:14:02.574Z,16.91
2022-08-12T22:16:06.719Z,16.82
2022-08-12T22:18:33.243Z,16.77
2022-08-12T22:20:59.783Z,16.67
2022-08-12T22:23:51.278Z,16.52
2022-08-12T22:26:15.987Z,16.46
2022-08-12T22:29:17.241Z,16.52
2022-08-12T22:31:45.875Z,16.43
2022-08-12T22:34:18.341Z,16.31
2022-08-12T22:36:45.733Z,16.22
2022-08-12T22:39:15.699Z,16.19
2022-08-12T22:42:01.779Z,16.25
2022-08-12T22:44:54.086Z,16.33
2022-08-12T22:47:53.736Z,16.34
2022-08-12T22:50:26.883Z,16.45
2022-08-12T22:53:14.922Z,16.42
2022-08-12T22:56:06.078Z,16.25
2022-08-12T22:58:33.352Z,16.24
2022-08-12T23:01:02.175Z,15.98
2022-08-12T23:03:47.652Z,15.87
2022-08-12T23:06:19.825Z,15.80
2022-08-12T23:08:47.958Z,15.83
2022-08-12T23:11:14.982Z,15.76
2022-08-12T23:13:55.433Z,15.80
2022-08-12T23:16:31.488Z,15.74
2022-08-12T23:19:18.184Z,15.59
2022-08-12T23:22:05.764Z,15.41
2022-08-12T23:24:53.919Z,15.40
2022-08-12T23:27:50.448Z,15.42
2022-08-12T23:30:25.184Z,15.33
2022-08-12T23:33:00.722Z,15.28
2022-08-12T23:35:28.431Z,15.16
2022-08-12T23:38:30.380Z,15.06
2022-08-12T23:40:58.179Z,15.00
2022-08-12T23:43:25.549Z,14.97
2022-08-12T23:46:01.018Z,14.93
2022-08-12T23:48:31.306Z,14.98
2022-08-12T23:51:01.170Z,14.97
2022-08-12T23:53:32.446Z,14.92
2022-08-12T23:55:59.580Z,14.95
2022-08-12T23:58:28.253Z,14.91
